Time;durP1;ratioP1;P1;durP2;ratioP2;P2;SDS_P1;SDS_P2;PMS_P1;PMS_P2;Temp;Humidity;BMP_temperature;BMP_pressure;BME280_temperature;BME280_humidity;BME280_pressure;Samples;Min_cycle;Max_cycle;Signal;HPM_P1;HPM_P2
2021/11/10 00:00:44;;;;;;;15.02;8.35;;;;;;;;;;5035760;28;20198;-78
2021/11/10 00:03:11;;;;;;;10.85;6.75;;;;;;;;;;5037832;28;20567;-81
2021/11/10 00:05:38;;;;;;;9.95;7.10;;;;;;;;;;5051291;28;20198;-81
2021/11/10 00:08:05;;;;;;;8.52;7.18;;;;;;;;;;5051941;28;20201;-80
2021/11/10 00:10:33;;;;;;;9.15;6.95;;;;;;;;;;5051128;28;20199;-81
2021/11/10 00:15:43;;;;;;;10.93;7.43;;;;;;;;;;5020551;28;20780;-80
2021/11/10 00:18:10;;;;;;;11.95;7.40;;;;;;;;;;5035633;28;20616;-80
2021/11/10 00:20:38;;;;;;;12.27;7.45;;;;;;;;;;5010783;28;20579;-82
2021/11/10 00:23:05;;;;;;;10.82;7.60;;;;;;;;;;5012089;28;20200;-79
2021/11/10 00:25:32;;;;;;;13.52;7.97;;;;;;;;;;5012125;28;20203;-81
2021/11/10 00:27:59;;;;;;;20.25;8.85;;;;;;;;;;5011136;28;20203;-80
2021/11/10 00:30:29;;;;;;;12.20;7.53;;;;;;;;;;5032772;28;20203;-80
2021/11/10 00:32:56;;;;;;;9.63;7.18;;;;;;;;;;5033809;28;20222;-81
2021/11/10 00:35:23;;;;;;;8.27;6.47;;;;;;;;;;5020433;28;20235;-79
2021/11/10 00:37:50;;;;;;;8.93;7.60;;;;;;;;;;5035807;28;20191;-80
2021/11/10 00:40:18;;;;;;;11.98;7.25;;;;;;;;;;5037535;28;20187;-81
2021/11/10 00:42:45;;;;;;;10.25;7.57;;;;;;;;;;5050373;28;20218;-81
2021/11/10 00:45:12;;;;;;;11.80;8.27;;;;;;;;;;5049595;28;20210;-79
2021/11/10 00:47:41;;;;;;;9.10;7.63;;;;;;;;;;5050283;28;20198;-81
2021/11/10 00:50:08;;;;;;;9.27;7.45;;;;;;;;;;5049999;28;20190;-78
2021/11/10 00:52:36;;;;;;;9.40;7.07;;;;;;;;;;5033311;28;20232;-81
2021/11/10 00:55:04;;;;;;;14.48;7.47;;;;;;;;;;5014849;28;20224;-82
2021/11/10 00:57:31;;;;;;;11.70;7.60;;;;;;;;;;5012288;28;20290;-81
2021/11/10 00:59:58;;;;;;;13.98;8.27;;;;;;;;;;5035831;28;20195;-82
2021/11/10 01:02:26;;;;;;;10.10;8.50;;;;;;;;;;5034916;28;20207;-81
2021/11/10 01:04:54;;;;;;;10.45;7.60;;;;;;;;;;5028698;28;20249;-81
2021/11/10 01:07:21;;;;;;;9.70;7.07;;;;;;;;;;5033756;28;20668;-82
2021/11/10 01:09:55;;;;;;;11.02;8.02;;;;;;;;;;5035184;28;20213;-82
2021/11/10 01:12:22;;;;;;;13.05;8.35;;;;;;;;;;5034765;28;20223;-79
2021/11/10 01:14:49;;;;;;;13.00;7.68;;;;;;;;;;5037571;28;20222;-80
2021/11/10 01:17:17;;;;;;;13.25;7.80;;;;;;;;;;5039412;28;20187;-83
2021/11/10 01:19:44;;;;;;;11.57;8.38;;;;;;;;;;5046175;28;20643;-80
2021/11/10 01:22:12;;;;;;;12.85;8.20;;;;;;;;;;5055096;28;20301;-82
2021/11/10 01:24:40;;;;;;;10.50;7.20;;;;;;;;;;5054799;28;20195;-80
2021/11/10 01:27:08;;;;;;;12.02;8.40;;;;;;;;;;5036737;28;20194;-82
2021/11/10 01:29:36;;;;;;;12.35;8.77;;;;;;;;;;5047428;28;20203;-81
2021/11/10 01:32:05;;;;;;;10.25;7.95;;;;;;;;;;5001023;28;20215;-82
2021/11/10 01:34:32;;;;;;;11.27;7.78;;;;;;;;;;5016042;28;20310;-79
2021/11/10 01:37:00;;;;;;;9.65;8.00;;;;;;;;;;5025144;28;20203;-79
2021/11/10 01:39:29;;;;;;;11.32;7.55;;;;;;;;;;5042009;28;20253;-80
2021/11/10 01:42:02;;;;;;;12.70;7.40;;;;;;;;;;5034283;28;20219;-80
2021/11/10 01:44:31;;;;;;;11.10;8.30;;;;;;;;;;5036075;28;20230;-80
2021/11/10 01:46:59;;;;;;;13.48;8.88;;;;;;;;;;5034856;28;20198;-81
2021/11/10 01:49:27;;;;;;;10.95;8.02;;;;;;;;;;5033945;28;20218;-80
2021/11/10 01:51:55;;;;;;;11.73;8.15;;;;;;;;;;5032104;28;20230;-80
2021/11/10 01:54:23;;;;;;;10.60;8.00;;;;;;;;;;5034791;28;20199;-81
2021/11/10 01:56:52;;;;;;;10.25;7.15;;;;;;;;;;5015639;28;20226;-80
2021/11/10 01:59:28;;;;;;;13.70;7.22;;;;;;;;;;5036962;28;22139;-80
2021/11/10 02:01:56;;;;;;;14.82;7.53;;;;;;;;;;5020933;28;20679;-79
2021/11/10 02:04:23;;;;;;;10.27;8.30;;;;;;;;;;5012949;28;20358;-80
2021/11/10 02:06:50;;;;;;;11.75;8.15;;;;;;;;;;5013467;28;20192;-80
2021/11/10 02:09:18;;;;;;;9.80;8.10;;;;;;;;;;5013844;28;20200;-78
2021/11/10 02:11:45;;;;;;;12.25;8.40;;;;;;;;;;5012150;28;20756;-77
2021/11/10 02:14:13;;;;;;;10.48;7.57;;;;;;;;;;5030023;28;20214;-79
2021/11/10 02:16:42;;;;;;;12.15;7.70;;;;;;;;;;5036299;28;20226;-78
2021/11/10 02:19:09;;;;;;;18.10;8.73;;;;;;;;;;5033570;28;20200;-80
2021/11/10 02:21:42;;;;;;;10.07;7.90;;;;;;;;;;5038011;28;20692;-81
2021/11/10 02:24:09;;;;;;;10.63;8.05;;;;;;;;;;5036786;28;20229;-81
2021/11/10 02:26:37;;;;;;;9.82;7.13;;;;;;;;;;5032243;28;20289;-78
2021/11/10 02:29:05;;;;;;;10.75;8.10;;;;;;;;;;5033229;28;20196;-81
2021/11/10 02:31:34;;;;;;;14.18;8.35;;;;;;;;;;5025293;28;20289;-79
2021/11/10 02:34:01;;;;;;;14.88;8.80;;;;;;;;;;5013832;28;20196;-80
2021/11/10 02:36:28;;;;;;;12.07;7.95;;;;;;;;;;5028032;28;20222;-80
2021/11/10 02:38:57;;;;;;;12.95;7.43;;;;;;;;;;5039242;28;20874;-80
2021/11/10 02:41:24;;;;;;;12.63;7.90;;;;;;;;;;5033931;28;20214;-80
2021/11/10 02:43:51;;;;;;;10.23;7.93;;;;;;;;;;5036014;28;20199;-79
2021/11/10 02:46:19;;;;;;;15.57;8.27;;;;;;;;;;5032791;28;20664;-80
2021/11/10 02:48:46;;;;;;;10.50;7.43;;;;;;;;;;5024411;28;20206;-80
2021/11/10 02:51:14;;;;;;;9.77;8.20;;;;;;;;;;5031123;28;20214;-79
2021/11/10 02:53:41;;;;;;;9.77;7.40;;;;;;;;;;5038510;28;20226;-79
2021/11/10 02:56:10;;;;;;;9.55;7.30;;;;;;;;;;5049650;28;20579;-79
2021/11/10 02:58:38;;;;;;;11.38;8.90;;;;;;;;;;5045261;28;20209;-80
2021/11/10 03:01:05;;;;;;;11.57;8.20;;;;;;;;;;5013589;28;20231;-82
2021/11/10 03:03:32;;;;;;;12.45;7.75;;;;;;;;;;5011569;28;20259;-81
2021/11/10 03:06:00;;;;;;;13.88;8.38;;;;;;;;;;5028858;28;20211;-79
2021/11/10 03:08:27;;;;;;;12.88;7.53;;;;;;;;;;5033824;28;20188;-79
2021/11/10 03:10:54;;;;;;;21.42;8.23;;;;;;;;;;5034977;28;20637;-79
2021/11/10 03:13:23;;;;;;;13.77;8.32;;;;;;;;;;5018101;28;20183;-81
2021/11/10 03:15:50;;;;;;;8.85;7.45;;;;;;;;;;5037602;28;20593;-78
2021/11/10 03:18:18;;;;;;;15.43;8.77;;;;;;;;;;5033017;28;20567;-80
2021/11/10 03:20:46;;;;;;;13.65;8.05;;;;;;;;;;5040979;28;20196;-80
2021/11/10 03:23:13;;;;;;;14.32;7.72;;;;;;;;;;5011895;28;20283;-79
2021/11/10 03:25:40;;;;;;;10.82;7.65;;;;;;;;;;5012995;28;20203;-80
2021/11/10 03:28:07;;;;;;;13.00;7.97;;;;;;;;;;5028371;28;20203;-79
2021/11/10 03:30:36;;;;;;;11.35;8.25;;;;;;;;;;5032312;28;20199;-80
2021/11/10 03:33:03;;;;;;;10.82;7.97;;;;;;;;;;5020664;28;20203;-80
2021/11/10 03:35:30;;;;;;;12.82;8.85;;;;;;;;;;5030504;28;20227;-81
2021/11/10 03:37:58;;;;;;;12.05;7.82;;;;;;;;;;5040721;28;20195;-79
2021/11/10 03:40:26;;;;;;;11.23;8.10;;;;;;;;;;5032010;28;20737;-81
2021/11/10 03:42:53;;;;;;;14.23;8.75;;;;;;;;;;5023610;28;20224;-80
2021/11/10 03:45:20;;;;;;;10.82;8.00;;;;;;;;;;5012855;28;20196;-81
2021/11/10 03:47:49;;;;;;;14.90;8.60;;;;;;;;;;5013671;28;20204;-81
2021/11/10 03:50:17;;;;;;;10.73;8.13;;;;;;;;;;5011802;28;20535;-81
2021/11/10 03:52:44;;;;;;;11.15;8.45;;;;;;;;;;5037661;28;20226;-80
2021/11/10 03:55:11;;;;;;;13.27;8.70;;;;;;;;;;5027871;28;20206;-79
2021/11/10 03:57:38;;;;;;;14.10;9.05;;;;;;;;;;5023209;28;20232;-80
2021/11/10 04:00:06;;;;;;;11.70;9.40;;;;;;;;;;5011613;28;20204;-81
2021/11/10 04:02:33;;;;;;;10.68;8.00;;;;;;;;;;5011631;28;20311;-81
2021/11/10 04:05:03;;;;;;;9.50;7.25;;;;;;;;;;5022754;28;20283;-79
2021/11/10 04:07:30;;;;;;;13.85;8.98;;;;;;;;;;5035879;28;20538;-81
2021/11/10 04:09:57;;;;;;;13.00;8.05;;;;;;;;;;5040029;28;20198;-81
2021/11/10 04:12:24;;;;;;;14.55;8.85;;;;;;;;;;5050714;28;20218;-82
2021/11/10 04:14:51;;;;;;;10.95;7.82;;;;;;;;;;5051408;28;20194;-82
2021/11/10 04:17:18;;;;;;;13.82;8.55;;;;;;;;;;5051868;28;20578;-80
2021/11/10 04:19:46;;;;;;;13.57;8.77;;;;;;;;;;5019250;28;20207;-82
2021/11/10 04:22:14;;;;;;;13.77;8.60;;;;;;;;;;5034369;28;20224;-79
2021/11/10 04:24:41;;;;;;;10.98;7.57;;;;;;;;;;5037206;28;20206;-80
2021/11/10 04:27:08;;;;;;;11.02;8.43;;;;;;;;;;5033442;28;20196;-79
2021/11/10 04:29:36;;;;;;;11.88;7.93;;;;;;;;;;5030937;28;20694;-80
2021/11/10 04:32:03;;;;;;;11.75;8.60;;;;;;;;;;5002585;28;20212;-81
2021/11/10 04:34:30;;;;;;;12.70;8.57;;;;;;;;;;5011513;28;20290;-80
2021/11/10 04:36:57;;;;;;;15.27;9.90;;;;;;;;;;5014151;28;20239;-81
2021/11/10 04:39:26;;;;;;;13.38;8.95;;;;;;;;;;5036063;28;20192;-79
2021/11/10 04:41:53;;;;;;;13.63;9.63;;;;;;;;;;5026508;28;20314;-81
2021/11/10 04:44:20;;;;;;;15.27;10.32;;;;;;;;;;5028750;28;20195;-82
2021/11/10 04:46:48;;;;;;;12.93;8.68;;;;;;;;;;5030796;28;20207;-79
2021/11/10 04:49:17;;;;;;;13.18;8.68;;;;;;;;;;5030872;28;20191;-80
2021/11/10 04:51:45;;;;;;;12.77;8.35;;;;;;;;;;5030223;28;20326;-79
2021/11/10 04:54:18;;;;;;;10.70;8.00;;;;;;;;;;5035153;28;20191;-80
2021/11/10 04:56:46;;;;;;;11.02;7.85;;;;;;;;;;5042979;28;20475;-79
2021/11/10 04:59:14;;;;;;;17.90;9.50;;;;;;;;;;5055896;28;20206;-79
2021/11/10 05:01:50;;;;;;;12.18;7.22;;;;;;;;;;5038342;28;20208;-78
2021/11/10 05:04:18;;;;;;;12.20;7.50;;;;;;;;;;5019072;28;20658;-81
2021/11/10 05:06:45;;;;;;;12.90;8.25;;;;;;;;;;5026202;28;20254;-81
2021/11/10 05:09:15;;;;;;;13.27;8.20;;;;;;;;;;5033395;28;20425;-79
2021/11/10 05:11:42;;;;;;;10.32;8.18;;;;;;;;;;5028739;28;20429;-79
2021/11/10 05:14:10;;;;;;;11.80;7.97;;;;;;;;;;5010581;28;20680;-80
2021/11/10 05:16:38;;;;;;;10.75;8.15;;;;;;;;;;5009466;28;20220;-80
2021/11/10 05:19:05;;;;;;;11.43;7.53;;;;;;;;;;5010547;28;20196;-81
2021/11/10 05:21:32;;;;;;;11.43;8.60;;;;;;;;;;5011765;28;20227;-80
2021/11/10 05:23:59;;;;;;;12.77;8.82;;;;;;;;;;5035828;28;22065;-78
2021/11/10 05:26:26;;;;;;;10.65;8.38;;;;;;;;;;5036517;28;20191;-79
2021/11/10 05:28:53;;;;;;;12.43;8.13;;;;;;;;;;5016592;28;20204;-81
2021/11/10 05:31:22;;;;;;;12.63;7.40;;;;;;;;;;5010856;28;20618;-81
2021/11/10 05:33:49;;;;;;;13.32;8.40;;;;;;;;;;5009686;28;20203;-78
2021/11/10 05:36:20;;;;;;;11.85;8.15;;;;;;;;;;5009186;28;20220;-79
2021/11/10 05:38:47;;;;;;;10.95;8.13;;;;;;;;;;5014135;28;20195;-79
2021/11/10 05:41:14;;;;;;;13.27;8.80;;;;;;;;;;5036550;28;20218;-79
2021/11/10 05:43:41;;;;;;;12.30;8.20;;;;;;;;;;5040808;28;20195;-78
2021/11/10 05:46:08;;;;;;;12.15;8.48;;;;;;;;;;5050784;28;20709;-79
2021/11/10 05:48:37;;;;;;;10.73;8.45;;;;;;;;;;5050324;28;20281;-82
2021/11/10 05:51:05;;;;;;;11.07;8.20;;;;;;;;;;5050571;28;20610;-79
2021/11/10 05:53:33;;;;;;;13.35;7.50;;;;;;;;;;5028931;28;20626;-82
2021/11/10 05:56:00;;;;;;;15.10;8.98;;;;;;;;;;5021286;28;20609;-81
2021/11/10 05:58:29;;;;;;;13.40;9.05;;;;;;;;;;5020417;28;20328;-80
2021/11/10 06:00:58;;;;;;;16.60;8.77;;;;;;;;;;4996544;28;20211;-84
2021/11/10 06:03:25;;;;;;;14.63;8.98;;;;;;;;;;5013371;28;20218;-80
2021/11/10 06:05:54;;;;;;;13.23;8.45;;;;;;;;;;5013989;28;20196;-79
2021/11/10 06:08:21;;;;;;;12.02;9.10;;;;;;;;;;5011306;28;20672;-78
2021/11/10 06:10:48;;;;;;;11.98;8.00;;;;;;;;;;5033664;28;20214;-79
2021/11/10 06:13:15;;;;;;;11.77;8.45;;;;;;;;;;5038756;28;20927;-78
2021/11/10 06:15:42;;;;;;;10.90;8.48;;;;;;;;;;5035932;28;20286;-79
2021/11/10 06:18:10;;;;;;;16.27;8.13;;;;;;;;;;5013184;28;20219;-78
2021/11/10 06:20:37;;;;;;;11.57;8.30;;;;;;;;;;5012264;28;20700;-78
2021/11/10 06:23:06;;;;;;;13.93;8.15;;;;;;;;;;5013787;28;20597;-78
2021/11/10 06:25:33;;;;;;;12.32;8.15;;;;;;;;;;5020816;28;20615;-79
2021/11/10 06:28:01;;;;;;;16.38;8.23;;;;;;;;;;5034859;28;20199;-78
2021/11/10 06:30:28;;;;;;;15.18;8.23;;;;;;;;;;5034266;28;20195;-79
2021/11/10 06:32:55;;;;;;;10.18;7.75;;;;;;;;;;5036953;28;20582;-79
2021/11/10 06:35:22;;;;;;;13.95;8.80;;;;;;;;;;5038946;28;20206;-80
2021/11/10 06:37:49;;;;;;;9.75;7.60;;;;;;;;;;5045662;28;20222;-79
2021/11/10 06:40:18;;;;;;;14.85;8.13;;;;;;;;;;5021161;28;20198;-80
2021/11/10 06:42:45;;;;;;;11.35;8.88;;;;;;;;;;5013224;28;20212;-79
2021/11/10 06:45:12;;;;;;;12.13;8.60;;;;;;;;;;5013032;28;20600;-79
2021/11/10 06:47:40;;;;;;;15.23;7.95;;;;;;;;;;5022157;28;20210;-78
2021/11/10 06:50:08;;;;;;;13.35;8.38;;;;;;;;;;5022278;28;20192;-77
2021/11/10 06:52:35;;;;;;;13.15;9.10;;;;;;;;;;5022276;28;20555;-78
2021/11/10 06:55:02;;;;;;;17.10;9.38;;;;;;;;;;5023106;28;20199;-81
2021/11/10 06:57:31;;;;;;;12.02;8.25;;;;;;;;;;5037331;28;20576;-80
2021/11/10 06:59:58;;;;;;;10.40;7.57;;;;;;;;;;5034387;28;20664;-80
2021/11/10 07:02:25;;;;;;;15.60;8.45;;;;;;;;;;5030551;28;20211;-77
2021/11/10 07:04:53;;;;;;;14.57;8.25;;;;;;;;;;4995318;28;20558;-78
2021/11/10 07:07:20;;;;;;;16.08;8.50;;;;;;;;;;5012556;28;20716;-79
2021/11/10 07:09:47;;;;;;;11.50;7.15;;;;;;;;;;5022389;28;22003;-79
2021/11/10 07:12:14;;;;;;;12.73;7.80;;;;;;;;;;5037859;28;20695;-79
2021/11/10 07:14:43;;;;;;;18.25;9.40;;;;;;;;;;5033882;28;20207;-79
2021/11/10 07:17:10;;;;;;;15.90;8.93;;;;;;;;;;5030865;28;20222;-78
2021/11/10 07:19:37;;;;;;;11.68;8.30;;;;;;;;;;5028559;28;20199;-80
2021/11/10 07:22:04;;;;;;;13.10;8.00;;;;;;;;;;5026056;28;20216;-81
2021/11/10 07:24:32;;;;;;;20.52;9.07;;;;;;;;;;5032464;28;20196;-77
2021/11/10 07:26:59;;;;;;;21.60;9.50;;;;;;;;;;5034374;28;20199;-80
2021/11/10 07:29:28;;;;;;;12.45;9.52;;;;;;;;;;5017252;28;20211;-80
2021/11/10 07:31:57;;;;;;;11.30;8.10;;;;;;;;;;5031078;28;20754;-79
2021/11/10 07:37:45;;;;;;;14.15;9.57;;;;;;;;;;4960603;28;20296;-80
2021/11/10 07:40:13;;;;;;;13.73;7.80;;;;;;;;;;4951291;28;20615;-78
2021/11/10 07:42:41;;;;;;;13.48;9.40;;;;;;;;;;5008325;28;20624;-78
2021/11/10 07:45:11;;;;;;;20.00;9.93;;;;;;;;;;5035697;28;20199;-83
2021/11/10 07:47:41;;;;;;;12.70;8.38;;;;;;;;;;5006009;28;20793;-82
2021/11/10 07:50:09;;;;;;;11.18;8.48;;;;;;;;;;5018834;28;20203;-80
2021/11/10 07:52:36;;;;;;;13.95;7.60;;;;;;;;;;5027153;28;20837;-82
2021/11/10 07:55:04;;;;;;;16.38;9.65;;;;;;;;;;5017865;28;20196;-81
2021/11/10 07:57:31;;;;;;;10.25;7.43;;;;;;;;;;5028410;28;20230;-82
2021/11/10 07:59:58;;;;;;;11.63;8.88;;;;;;;;;;5035381;28;20186;-82
2021/11/10 08:02:25;;;;;;;11.70;9.10;;;;;;;;;;5041742;28;20710;-83
2021/11/10 08:04:54;;;;;;;10.98;8.00;;;;;;;;;;5049772;28;20195;-81
2021/11/10 08:07:21;;;;;;;14.23;7.30;;;;;;;;;;5050965;28;20198;-83
2021/11/10 08:09:48;;;;;;;12.25;8.13;;;;;;;;;;5042171;28;20203;-83
2021/11/10 08:12:16;;;;;;;10.77;7.95;;;;;;;;;;5020798;28;20314;-80
2021/11/10 08:14:43;;;;;;;15.32;8.45;;;;;;;;;;5035784;28;20284;-80
2021/11/10 08:17:10;;;;;;;11.05;8.25;;;;;;;;;;5035437;28;20211;-82
2021/11/10 08:19:37;;;;;;;11.93;7.68;;;;;;;;;;5029351;28;20203;-82
2021/11/10 08:22:06;;;;;;;11.27;7.75;;;;;;;;;;5025036;28;20211;-83
2021/11/10 08:24:34;;;;;;;13.57;9.23;;;;;;;;;;5015983;28;20191;-81
2021/11/10 08:27:01;;;;;;;13.68;8.93;;;;;;;;;;5030463;28;20209;-84
2021/11/10 08:29:28;;;;;;;12.57;8.90;;;;;;;;;;5031479;28;20188;-82
2021/11/10 08:31:55;;;;;;;12.90;8.77;;;;;;;;;;5031806;28;20266;-83
2021/11/10 08:34:22;;;;;;;13.50;8.20;;;;;;;;;;5033110;28;20198;-83
2021/11/10 08:36:49;;;;;;;11.63;8.25;;;;;;;;;;5035773;28;20194;-84
2021/11/10 08:39:18;;;;;;;13.43;8.50;;;;;;;;;;5032000;28;20191;-84
2021/11/10 08:41:47;;;;;;;15.00;9.70;;;;;;;;;;5009596;28;20246;-83
2021/11/10 08:44:15;;;;;;;14.05;8.70;;;;;;;;;;5013236;28;20273;-82
2021/11/10 08:46:42;;;;;;;10.68;8.10;;;;;;;;;;5029879;28;20187;-83
2021/11/10 08:49:10;;;;;;;14.50;9.13;;;;;;;;;;5012940;28;20204;-83
2021/11/10 08:51:38;;;;;;;13.77;8.80;;;;;;;;;;5027990;28;20736;-84
2021/11/10 08:54:05;;;;;;;12.18;8.82;;;;;;;;;;5014130;28;20196;-81
2021/11/10 08:56:34;;;;;;;11.45;7.97;;;;;;;;;;5025442;28;20663;-82
2021/11/10 08:59:02;;;;;;;16.08;9.30;;;;;;;;;;5021079;28;20215;-81
2021/11/10 09:01:29;;;;;;;12.10;8.95;;;;;;;;;;5034458;28;20687;-80
2021/11/10 09:03:57;;;;;;;13.52;10.07;;;;;;;;;;5031192;28;20192;-81
2021/11/10 09:06:24;;;;;;;11.93;8.35;;;;;;;;;;5029934;28;20199;-81
2021/11/10 09:08:51;;;;;;;11.57;8.50;;;;;;;;;;5029394;28;20196;-79
2021/11/10 09:11:19;;;;;;;14.25;10.00;;;;;;;;;;5011079;28;20219;-80
2021/11/10 09:13:48;;;;;;;15.45;9.27;;;;;;;;;;5025480;28;20203;-80
2021/11/10 09:16:15;;;;;;;17.33;9.63;;;;;;;;;;5036979;28;20286;-79
2021/11/10 09:18:42;;;;;;;14.02;9.23;;;;;;;;;;5032825;28;20698;-81
2021/11/10 09:21:11;;;;;;;13.35;8.60;;;;;;;;;;5029696;28;20687;-79
2021/11/10 09:23:39;;;;;;;12.63;9.55;;;;;;;;;;5031041;28;20217;-78
2021/11/10 09:26:06;;;;;;;13.38;8.75;;;;;;;;;;5025460;28;20196;-80
2021/11/10 09:28:35;;;;;;;13.70;9.38;;;;;;;;;;5028401;28;20690;-80
2021/11/10 09:31:03;;;;;;;14.90;9.40;;;;;;;;;;5040588;28;20214;-80
2021/11/10 09:33:34;;;;;;;14.57;8.82;;;;;;;;;;5029089;28;20286;-78
2021/11/10 09:36:02;;;;;;;12.60;10.30;;;;;;;;;;5014826;28;20196;-79
2021/11/10 09:38:30;;;;;;;11.90;9.20;;;;;;;;;;5017812;28;20286;-79
2021/11/10 09:40:59;;;;;;;15.30;9.88;;;;;;;;;;5033857;28;20290;-80
2021/11/10 09:43:30;;;;;;;13.10;10.10;;;;;;;;;;5007488;28;20196;-80
2021/11/10 09:45:58;;;;;;;12.18;9.88;;;;;;;;;;5032381;28;20191;-80
2021/11/10 09:48:26;;;;;;;13.50;9.95;;;;;;;;;;5037948;28;20196;-78
2021/11/10 09:50:54;;;;;;;12.93;10.13;;;;;;;;;;5013109;28;20196;-79
2021/11/10 09:53:22;;;;;;;15.90;9.02;;;;;;;;;;5013040;28;20198;-79
2021/11/10 09:55:49;;;;;;;18.77;10.55;;;;;;;;;;5029090;28;20191;-80
2021/11/10 09:58:17;;;;;;;14.90;9.70;;;;;;;;;;5021280;28;20224;-79
2021/11/10 10:00:45;;;;;;;16.30;9.77;;;;;;;;;;5018151;28;20276;-80
2021/11/10 10:03:12;;;;;;;21.60;10.43;;;;;;;;;;5038162;28;20206;-79
2021/11/10 10:05:41;;;;;;;15.88;10.25;;;;;;;;;;5033182;28;20202;-80
2021/11/10 10:08:10;;;;;;;13.52;10.02;;;;;;;;;;5014362;28;20200;-80
2021/11/10 10:10:39;;;;;;;15.65;10.48;;;;;;;;;;5032646;28;20270;-81
2021/11/10 10:13:07;;;;;;;17.23;12.02;;;;;;;;;;5033403;28;20231;-81
2021/11/10 10:15:36;;;;;;;17.17;11.35;;;;;;;;;;5035197;28;20603;-80
2021/11/10 10:18:04;;;;;;;16.80;10.93;;;;;;;;;;5039985;28;20222;-81
2021/11/10 10:20:32;;;;;;;14.90;10.93;;;;;;;;;;5028755;28;20559;-80
2021/11/10 10:23:02;;;;;;;16.35;10.65;;;;;;;;;;5016402;28;20219;-80
2021/11/10 10:25:37;;;;;;;13.93;10.30;;;;;;;;;;5015600;28;20187;-80
2021/11/10 10:28:05;;;;;;;15.02;11.25;;;;;;;;;;5034606;28;20195;-80
2021/11/10 10:30:34;;;;;;;17.17;11.10;;;;;;;;;;5037534;28;20196;-80
2021/11/10 10:33:02;;;;;;;17.40;10.50;;;;;;;;;;5035443;28;20195;-81
2021/11/10 10:35:31;;;;;;;14.82;10.20;;;;;;;;;;5015962;28;20305;-80
2021/11/10 10:38:00;;;;;;;17.70;10.85;;;;;;;;;;5013574;28;20219;-80
2021/11/10 10:40:29;;;;;;;16.10;10.82;;;;;;;;;;5031109;28;20238;-80
2021/11/10 10:42:56;;;;;;;17.48;10.88;;;;;;;;;;5025838;28;20216;-80
2021/11/10 10:45:27;;;;;;;13.55;9.48;;;;;;;;;;5027851;28;20191;-80
2021/11/10 10:47:56;;;;;;;14.25;10.30;;;;;;;;;;5017491;28;20210;-80
2021/11/10 10:50:31;;;;;;;12.07;10.48;;;;;;;;;;5034348;28;20198;-80
2021/11/10 10:52:58;;;;;;;15.90;10.50;;;;;;;;;;5034971;28;20226;-80
2021/11/10 10:55:35;;;;;;;14.07;9.82;;;;;;;;;;5035541;28;20195;-81
2021/11/10 10:58:03;;;;;;;16.58;10.65;;;;;;;;;;5047726;28;20582;-80
2021/11/10 11:00:32;;;;;;;16.92;10.48;;;;;;;;;;5013170;28;20196;-80
2021/11/10 11:03:23;;;;;;;13.07;10.23;;;;;;;;;;5015521;28;20258;-81
2021/11/10 11:05:51;;;;;;;13.32;10.15;;;;;;;;;;5031963;28;20261;-80
2021/11/10 11:08:26;;;;;;;15.15;10.90;;;;;;;;;;5033257;28;20183;-80
2021/11/10 11:10:54;;;;;;;17.08;12.73;;;;;;;;;;5034495;28;20191;-79
2021/11/10 11:13:24;;;;;;;14.50;10.63;;;;;;;;;;5033406;28;20290;-80
2021/11/10 11:16:02;;;;;;;13.63;10.87;;;;;;;;;;5035114;28;20968;-79
2021/11/10 11:18:29;;;;;;;13.80;10.67;;;;;;;;;;5037639;28;20465;-79
2021/11/10 11:20:57;;;;;;;13.30;11.07;;;;;;;;;;5031901;28;20468;-80
2021/11/10 11:23:40;;;;;;;13.07;9.83;;;;;;;;;;5033788;28;20795;-80
2021/11/10 11:26:29;;;;;;;13.27;9.57;;;;;;;;;;5015101;28;20853;-80
2021/11/10 11:28:56;;;;;;;16.17;10.70;;;;;;;;;;5019184;28;20462;-81
2021/11/10 11:31:33;;;;;;;13.03;10.10;;;;;;;;;;5036009;28;20996;-80
2021/11/10 11:34:00;;;;;;;14.30;10.73;;;;;;;;;;5016903;28;20453;-79
2021/11/10 11:36:42;;;;;;;12.73;9.80;;;;;;;;;;5011794;28;20459;-80
2021/11/10 11:39:10;;;;;;;22.43;15.43;;;;;;;;;;5018269;28;20494;-80
2021/11/10 11:41:39;;;;;;;14.60;11.00;;;;;;;;;;5012458;28;21001;-84
2021/11/10 11:44:06;;;;;;;21.93;11.17;;;;;;;;;;5007103;28;20454;-82
2021/11/10 11:46:34;;;;;;;14.07;10.67;;;;;;;;;;5036124;28;20434;-81
2021/11/10 11:49:01;;;;;;;21.30;12.27;;;;;;;;;;5036200;28;20445;-81
2021/11/10 11:51:28;;;;;;;16.93;12.50;;;;;;;;;;5030541;28;20839;-82
2021/11/10 11:53:59;;;;;;;18.10;13.10;;;;;;;;;;5012850;28;20459;-81
2021/11/10 11:56:27;;;;;;;15.40;12.07;;;;;;;;;;5012164;28;20457;-82
2021/11/10 11:58:57;;;;;;;22.37;13.67;;;;;;;;;;5012616;28;20474;-81
2021/11/10 12:01:25;;;;;;;17.83;10.93;;;;;;;;;;5029220;28;20997;-82
2021/11/10 12:03:53;;;;;;;19.23;11.97;;;;;;;;;;5033508;28;20456;-81
2021/11/10 12:06:23;;;;;;;17.87;10.67;;;;;;;;;;5042573;28;20464;-80
2021/11/10 12:08:51;;;;;;;13.30;10.30;;;;;;;;;;5031409;28;20789;-81
2021/11/10 12:11:33;;;;;;;13.73;10.57;;;;;;;;;;5010600;28;20462;-82
2021/11/10 12:14:10;;;;;;;13.70;10.60;;;;;;;;;;5008076;28;20445;-81
2021/11/10 12:16:52;;;;;;;15.67;10.80;;;;;;;;;;5034007;28;20470;-81
2021/11/10 12:19:21;;;;;;;18.70;10.70;;;;;;;;;;5020549;28;20508;-81
2021/11/10 12:21:50;;;;;;;14.47;10.77;;;;;;;;;;5024310;28;20479;-78
2021/11/10 12:24:19;;;;;;;15.00;11.27;;;;;;;;;;5013827;28;20463;-83
2021/11/10 12:27:02;;;;;;;14.20;11.70;;;;;;;;;;4993854;28;20451;-81
2021/11/10 12:29:41;;;;;;;15.27;12.00;;;;;;;;;;5026631;28;20442;-82
2021/11/10 12:32:08;;;;;;;13.53;11.00;;;;;;;;;;5031210;28;20484;-82
2021/11/10 12:34:36;;;;;;;20.00;12.00;;;;;;;;;;5035373;28;20434;-81
2021/11/10 12:37:05;;;;;;;17.50;11.83;;;;;;;;;;5015454;28;20434;-81
2021/11/10 12:39:34;;;;;;;13.97;11.33;;;;;;;;;;5030579;28;20565;-82
2021/11/10 12:42:01;;;;;;;16.07;12.00;;;;;;;;;;5024324;28;20483;-81
2021/11/10 12:44:30;;;;;;;15.90;11.93;;;;;;;;;;5026187;28;20457;-81
2021/11/10 12:46:59;;;;;;;16.00;11.07;;;;;;;;;;5003180;28;20960;-80
2021/11/10 12:49:26;;;;;;;21.10;11.77;;;;;;;;;;5026253;28;20980;-79
2021/11/10 12:52:08;;;;;;;14.27;10.57;;;;;;;;;;5032790;28;20481;-79
2021/11/10 12:54:35;;;;;;;16.23;11.07;;;;;;;;;;5025023;28;20461;-79
2021/11/10 12:57:04;;;;;;;16.90;12.70;;;;;;;;;;5028245;28;20460;-78
2021/11/10 12:59:32;;;;;;;16.70;12.20;;;;;;;;;;5010005;28;20527;-78
2021/11/10 13:02:02;;;;;;;18.97;12.23;;;;;;;;;;5009274;28;20487;-79
2021/11/10 13:04:30;;;;;;;16.67;11.80;;;;;;;;;;5027070;28;20454;-80
2021/11/10 13:06:59;;;;;;;17.17;11.63;;;;;;;;;;5012218;28;20484;-79
2021/11/10 13:09:34;;;;;;;20.10;11.97;;;;;;;;;;5030183;28;20504;-80
2021/11/10 13:12:03;;;;;;;13.53;12.10;;;;;;;;;;5032349;28;20464;-81
2021/11/10 13:14:30;;;;;;;14.57;12.73;;;;;;;;;;5034787;28;20439;-80
2021/11/10 13:16:58;;;;;;;13.60;10.80;;;;;;;;;;5040847;28;20435;-81
2021/11/10 13:19:37;;;;;;;13.63;10.80;;;;;;;;;;5011498;28;20492;-80
2021/11/10 13:22:05;;;;;;;15.73;12.23;;;;;;;;;;5017021;28;20809;-81
2021/11/10 13:24:32;;;;;;;14.40;11.50;;;;;;;;;;5031267;28;20480;-81
2021/11/10 13:26:59;;;;;;;21.07;11.90;;;;;;;;;;5013851;28;21046;-80
2021/11/10 13:29:27;;;;;;;14.23;11.40;;;;;;;;;;5031807;28;20450;-81
2021/11/10 13:32:09;;;;;;;14.30;11.17;;;;;;;;;;5032300;28;20966;-80
2021/11/10 13:34:37;;;;;;;14.63;11.30;;;;;;;;;;5030577;28;20544;-79
2021/11/10 13:37:05;;;;;;;13.13;9.33;;;;;;;;;;5033136;28;20449;-81
2021/11/10 13:39:32;;;;;;;12.90;10.47;;;;;;;;;;5030110;28;20858;-80
2021/11/10 13:42:00;;;;;;;14.23;10.70;;;;;;;;;;5029882;28;20822;-80
2021/11/10 13:44:29;;;;;;;13.27;10.03;;;;;;;;;;5021087;28;20697;-80
2021/11/10 13:46:57;;;;;;;16.70;10.47;;;;;;;;;;5011818;28;20438;-80
2021/11/10 13:49:26;;;;;;;14.57;9.37;;;;;;;;;;5027107;28;20466;-80
2021/11/10 13:51:55;;;;;;;17.00;11.53;;;;;;;;;;5033124;28;20481;-81
2021/11/10 13:54:23;;;;;;;12.50;9.77;;;;;;;;;;5033077;28;20496;-82
2021/11/10 13:56:52;;;;;;;13.10;10.03;;;;;;;;;;5010022;28;20816;-81
2021/11/10 13:59:21;;;;;;;13.10;10.53;;;;;;;;;;5006637;28;21010;-81
2021/11/10 14:01:50;;;;;;;13.00;9.80;;;;;;;;;;4996295;28;20477;-78
2021/11/10 14:04:18;;;;;;;15.30;10.43;;;;;;;;;;5012971;28;20458;-80
2021/11/10 14:07:00;;;;;;;16.03;11.63;;;;;;;;;;5036441;28;20445;-80
2021/11/10 14:09:29;;;;;;;16.57;11.67;;;;;;;;;;5017222;28;20520;-80
2021/11/10 14:12:11;;;;;;;14.57;10.23;;;;;;;;;;5029678;28;21006;-81
2021/11/10 14:14:39;;;;;;;16.37;11.50;;;;;;;;;;5015696;28;20438;-80
2021/11/10 14:17:06;;;;;;;14.87;10.43;;;;;;;;;;5033542;28;20800;-80
2021/11/10 14:19:33;;;;;;;15.37;10.90;;;;;;;;;;5030209;28;20492;-80
2021/11/10 14:22:02;;;;;;;15.03;12.10;;;;;;;;;;5037128;28;20996;-81
2021/11/10 14:24:31;;;;;;;16.70;12.57;;;;;;;;;;5038734;28;22248;-80
2021/11/10 14:27:04;;;;;;;16.23;13.47;;;;;;;;;;5024200;28;20454;-80
2021/11/10 14:29:32;;;;;;;18.80;14.17;;;;;;;;;;5011866;28;21003;-79
2021/11/10 14:32:02;;;;;;;15.57;13.70;;;;;;;;;;5013069;28;20546;-81
2021/11/10 14:34:30;;;;;;;16.23;14.20;;;;;;;;;;5013776;28;20455;-80
2021/11/10 14:36:59;;;;;;;21.77;14.57;;;;;;;;;;5025685;28;20469;-80
2021/11/10 14:39:26;;;;;;;20.77;14.60;;;;;;;;;;5038730;28;21244;-80